Time;durP1;ratioP1;P1;durP2;ratioP2;P2;SDS_P1;SDS_P2;PMS_P1;PMS_P2;Temp;Humidity;BMP_temperature;BMP_pressure;BME280_temperature;BME280_humidity;BME280_pressure;Samples;Min_cycle;Max_cycle;Signal;HPM_P1;HPM_P2
2023/02/13 00:01:10;;;;;;;28.15;17.90;;;8.40;99.90;;;;;;4994922;28;20065;-53
2023/02/13 00:03:56;;;;;;;22.48;15.63;;;8.30;99.90;;;;;;4974503;28;20117;-56
2023/02/13 00:06:42;;;;;;;22.95;16.63;;;8.30;99.90;;;;;;4986777;28;20045;-51
2023/02/13 00:09:28;;;;;;;28.48;17.45;;;8.20;99.90;;;;;;4995152;28;20524;-52
2023/02/13 00:12:14;;;;;;;23.52;16.92;;;8.30;99.90;;;;;;4993861;28;20459;-54
2023/02/13 00:15:03;;;;;;;25.73;17.50;;;8.20;99.90;;;;;;5002625;28;20038;-50
2023/02/13 00:17:49;;;;;;;27.27;17.13;;;8.40;99.90;;;;;;4995381;28;20034;-54
2023/02/13 00:20:37;;;;;;;22.77;16.90;;;8.30;99.90;;;;;;4995377;28;20069;-52
2023/02/13 00:23:23;;;;;;;26.23;18.08;;;8.20;99.90;;;;;;4994287;28;20022;-54
2023/02/13 00:26:11;;;;;;;26.33;17.15;;;8.10;99.90;;;;;;5000821;28;20031;-51
2023/02/13 00:28:57;;;;;;;25.00;17.35;;;8.10;99.90;;;;;;4999557;28;20014;-53
2023/02/13 00:31:44;;;;;;;23.45;16.85;;;8.00;99.90;;;;;;4995659;28;20033;-54
2023/02/13 00:34:30;;;;;;;26.52;17.60;;;8.10;99.90;;;;;;4994041;28;20151;-50
2023/02/13 00:37:16;;;;;;;24.73;16.77;;;8.10;99.90;;;;;;4975336;28;20062;-52
2023/02/13 00:40:03;;;;;;;24.25;16.55;;;8.20;99.90;;;;;;4989527;28;20089;-51
2023/02/13 00:42:49;;;;;;;23.95;16.27;;;8.20;99.90;;;;;;4984778;28;20135;-55
2023/02/13 00:45:34;;;;;;;25.75;18.05;;;8.10;99.90;;;;;;4981576;28;20083;-50
2023/02/13 00:48:20;;;;;;;25.90;18.25;;;8.00;99.90;;;;;;4984900;28;20041;-54
2023/02/13 00:51:08;;;;;;;24.90;17.33;;;8.00;99.90;;;;;;4975680;28;20027;-53
2023/02/13 00:53:53;;;;;;;27.50;17.35;;;7.90;99.90;;;;;;4989855;28;20230;-51
2023/02/13 00:56:39;;;;;;;24.35;16.63;;;7.90;99.90;;;;;;4993705;28;20031;-51
2023/02/13 00:59:25;;;;;;;23.88;16.45;;;7.80;99.90;;;;;;4994701;28;20498;-49
2023/02/13 01:02:11;;;;;;;24.17;17.13;;;7.80;99.90;;;;;;5003037;28;20046;-52
2023/02/13 01:04:57;;;;;;;23.33;16.55;;;7.80;99.90;;;;;;4996713;28;20027;-54
2023/02/13 01:07:43;;;;;;;24.90;16.30;;;7.80;99.90;;;;;;4990778;28;20062;-54
2023/02/13 01:10:29;;;;;;;23.70;16.35;;;7.90;99.90;;;;;;4985341;28;20034;-52
2023/02/13 01:13:19;;;;;;;23.60;16.38;;;7.90;99.90;;;;;;4994665;28;20037;-53
2023/02/13 01:16:05;;;;;;;22.15;15.35;;;7.90;99.90;;;;;;4975343;28;20042;-54
2023/02/13 01:18:51;;;;;;;25.13;15.75;;;7.90;99.90;;;;;;4975992;28;20426;-52
2023/02/13 01:21:37;;;;;;;25.42;16.42;;;7.90;99.90;;;;;;4988808;28;20027;-52
2023/02/13 01:24:23;;;;;;;22.17;15.07;;;7.90;99.90;;;;;;5005956;28;20026;-53
2023/02/13 01:27:09;;;;;;;22.48;15.73;;;8.00;99.90;;;;;;5005234;28;20026;-52
2023/02/13 01:29:55;;;;;;;23.85;16.02;;;7.90;99.90;;;;;;4994827;28;20033;-52
2023/02/13 01:32:43;;;;;;;21.98;15.48;;;7.90;99.90;;;;;;4992779;28;20031;-54
2023/02/13 01:35:29;;;;;;;25.45;16.42;;;7.90;99.90;;;;;;4992762;28;20606;-49
2023/02/13 01:38:15;;;;;;;25.85;15.95;;;7.90;99.90;;;;;;4993639;28;20138;-48
2023/02/13 01:41:01;;;;;;;25.98;16.40;;;7.90;99.90;;;;;;4992717;28;20061;-55
2023/02/13 01:43:50;;;;;;;23.27;16.80;;;7.80;99.90;;;;;;4992669;28;20038;-49
2023/02/13 01:46:41;;;;;;;21.63;15.73;;;7.90;99.90;;;;;;4993442;28;20030;-49
2023/02/13 01:49:27;;;;;;;21.80;14.95;;;7.90;99.90;;;;;;4993034;28;20022;-49
2023/02/13 01:52:14;;;;;;;23.60;15.88;;;7.90;99.90;;;;;;4993140;28;20034;-51
2023/02/13 01:55:00;;;;;;;25.80;15.82;;;7.90;99.90;;;;;;4992175;28;20034;-54
2023/02/13 01:57:57;;;;;;;22.48;15.23;;;7.90;99.90;;;;;;4992657;28;20447;-50
2023/02/13 02:00:48;;;;;;;26.23;16.15;;;7.80;99.90;;;;;;4992533;28;20030;-52
2023/02/13 02:03:42;;;;;;;23.10;15.85;;;7.70;99.90;;;;;;4993078;28;20045;-52
2023/02/13 02:06:33;;;;;;;27.60;16.70;;;7.70;99.90;;;;;;4992563;28;20030;-51
2023/02/13 02:09:26;;;;;;;24.15;15.65;;;7.80;99.90;;;;;;4992028;28;20023;-51
2023/02/13 02:12:24;;;;;;;26.48;17.02;;;7.70;99.90;;;;;;4991813;28;20036;-49
2023/02/13 02:15:11;;;;;;;26.67;16.15;;;7.80;99.90;;;;;;4993724;28;20497;-51
2023/02/13 02:17:57;;;;;;;25.65;16.95;;;7.70;99.90;;;;;;4997935;28;20034;-50
2023/02/13 02:21:02;;;;;;;24.00;15.82;;;7.70;99.90;;;;;;5003654;28;20030;-51
2023/02/13 02:24:08;;;;;;;25.25;16.05;;;7.70;99.90;;;;;;4992120;28;20403;-48
2023/02/13 02:27:25;;;;;;;28.33;17.02;;;7.80;99.90;;;;;;5011341;28;20517;-55
2023/02/13 02:30:25;;;;;;;;;;;7.80;99.90;;;;;;4993047;28;20061;-51
2023/02/13 02:33:17;;;;;;;25.13;16.33;;;7.70;99.90;;;;;;4993070;28;19926;-51
2023/02/13 02:36:27;;;;;;;26.38;17.20;;;7.70;99.90;;;;;;4973670;28;20526;-48
2023/02/13 02:39:51;;;;;;;25.88;16.20;;;7.80;99.90;;;;;;4977368;28;20053;-48
2023/02/13 02:42:58;;;;;;;24.88;15.50;;;7.60;99.90;;;;;;4992212;28;20034;-48
2023/02/13 02:46:13;;;;;;;26.90;17.45;;;7.70;99.90;;;;;;4991859;28;20031;-53
2023/02/13 02:52:22;;;;;;;28.80;17.33;;;7.60;99.90;;;;;;4992380;28;20030;-53
2023/02/13 02:55:40;;;;;;;27.45;17.17;;;7.60;99.90;;;;;;4991074;28;20041;-53
2023/02/13 03:07:56;;;;;;;30.65;17.63;;;7.60;99.90;;;;;;4992359;28;20491;-53
2023/02/13 03:13:48;;;;;;;30.83;16.65;;;7.60;99.90;;;;;;4992022;28;20022;-52
2023/02/13 03:23:30;;;;;;;29.25;17.98;;;7.60;99.90;;;;;;4991937;28;20101;-55
2023/02/13 03:26:54;;;;;;;29.17;16.83;;;7.50;99.90;;;;;;4990732;28;20037;-52
2023/02/13 03:30:08;;;;;;;33.58;20.05;;;7.60;99.90;;;;;;4990511;28;20034;-55
2023/02/13 03:33:03;;;;;;;32.58;18.90;;;7.50;99.90;;;;;;4990156;28;20503;-52
2023/02/13 03:39:43;;;;;;;32.05;19.88;;;7.50;99.90;;;;;;4991662;28;20546;-53
2023/02/13 03:42:46;;;;;;;36.28;20.48;;;7.40;99.90;;;;;;4991264;28;20038;-52
2023/02/13 03:45:52;;;;;;;34.80;20.50;;;7.30;99.90;;;;;;4991743;28;20030;-50
2023/02/13 03:51:59;;;;;;;34.65;19.67;;;7.10;99.90;;;;;;4991735;28;20103;-52
2023/02/13 04:01:10;;;;;;;34.28;20.05;;;7.00;99.90;;;;;;4991456;28;20041;-51
2023/02/13 04:04:08;;;;;;;36.92;20.33;;;7.10;99.90;;;;;;4991712;28;20084;-49
2023/02/13 04:07:04;;;;;;;36.05;20.00;;;7.20;99.90;;;;;;4970823;28;20073;-48
2023/02/13 04:09:50;;;;;;;34.05;20.15;;;7.20;99.90;;;;;;4977756;28;20034;-49
2023/02/13 04:12:40;;;;;;;34.70;20.52;;;7.10;99.90;;;;;;4991340;28;20101;-51
2023/02/13 04:15:38;;;;;;;28.20;17.73;;;7.10;99.90;;;;;;4989638;28;20030;-49
2023/02/13 04:18:31;;;;;;;37.10;18.83;;;7.10;99.90;;;;;;4991329;28;20025;-54
2023/02/13 04:21:16;;;;;;;31.27;18.15;;;7.10;99.90;;;;;;4991831;28;20034;-49
2023/02/13 04:24:03;;;;;;;27.90;16.33;;;7.10;99.90;;;;;;4991375;28;20117;-51
2023/02/13 04:26:49;;;;;;;30.58;15.50;;;7.20;99.90;;;;;;4972214;28;20041;-50
2023/02/13 04:29:35;;;;;;;27.88;16.08;;;7.20;99.90;;;;;;4972013;28;20027;-51
2023/02/13 04:32:21;;;;;;;27.38;15.57;;;7.30;99.90;;;;;;4990343;28;20022;-53
2023/02/13 04:35:08;;;;;;;29.20;15.50;;;7.20;99.90;;;;;;4991145;28;20038;-55
2023/02/13 04:37:54;;;;;;;27.27;15.35;;;7.20;99.90;;;;;;4991347;28;20462;-53
2023/02/13 04:40:42;;;;;;;29.17;15.85;;;7.20;99.90;;;;;;4977520;28;20035;-51
2023/02/13 04:43:28;;;;;;;25.90;15.18;;;7.30;99.90;;;;;;4991722;28;20034;-51
2023/02/13 04:46:14;;;;;;;27.27;15.80;;;7.20;99.90;;;;;;4993986;28;20070;-49
2023/02/13 04:49:00;;;;;;;29.98;15.82;;;7.10;99.90;;;;;;4993791;28;20065;-49
2023/02/13 04:51:46;;;;;;;25.90;15.02;;;7.00;99.90;;;;;;4994623;28;20636;-50
2023/02/13 04:54:32;;;;;;;24.17;14.00;;;7.10;99.90;;;;;;4995203;28;20568;-48
2023/02/13 04:57:18;;;;;;;23.85;14.48;;;7.10;99.90;;;;;;4995368;28;20062;-49
2023/02/13 05:00:05;;;;;;;22.73;13.88;;;7.20;99.90;;;;;;4995232;28;20029;-52
2023/02/13 05:02:52;;;;;;;27.00;14.32;;;7.30;99.90;;;;;;4994020;28;20065;-50
2023/02/13 05:05:39;;;;;;;19.55;12.88;;;7.40;99.90;;;;;;4993264;28;20034;-49
2023/02/13 05:08:25;;;;;;;23.00;13.88;;;7.40;99.90;;;;;;4993456;28;20018;-50
2023/02/13 05:11:11;;;;;;;21.15;12.30;;;7.40;99.90;;;;;;4993961;28;20042;-52
2023/02/13 05:13:56;;;;;;;26.17;13.98;;;7.40;99.90;;;;;;4994351;28;20061;-48
2023/02/13 05:16:42;;;;;;;20.63;12.65;;;7.30;99.90;;;;;;4993923;28;20525;-48
2023/02/13 05:19:28;;;;;;;25.48;15.52;;;7.20;99.90;;;;;;4993978;28;20037;-49
2023/02/13 05:25:19;;;;;;;22.48;13.65;;;7.20;99.90;;;;;;4993635;28;20038;-49
2023/02/13 05:29:17;;;;;;;23.10;13.65;;;7.30;99.90;;;;;;4993465;28;20407;-48
2023/02/13 05:31:11;;;;;;;24.92;14.80;;;7.30;99.90;;;;;;4994090;28;20062;-52
2023/02/13 05:33:57;;;;;;;23.67;13.48;;;7.30;99.90;;;;;;4993532;28;20018;-50
2023/02/13 05:36:43;;;;;;;23.20;13.90;;;7.30;99.90;;;;;;4993445;28;20121;-55
2023/02/13 05:39:29;;;;;;;23.95;13.77;;;7.30;99.90;;;;;;4993554;28;20073;-52
2023/02/13 05:42:15;;;;;;;22.77;13.20;;;7.30;99.90;;;;;;4993609;28;20133;-49
2023/02/13 05:45:01;;;;;;;23.95;13.90;;;7.30;99.90;;;;;;4992073;28;20073;-53
2023/02/13 05:47:47;;;;;;;27.00;16.13;;;7.30;99.90;;;;;;4996606;28;20018;-50
2023/02/13 05:50:33;;;;;;;26.90;14.75;;;7.20;99.90;;;;;;5004616;28;20513;-53
2023/02/13 05:53:19;;;;;;;30.63;17.75;;;7.20;99.90;;;;;;5005222;28;20550;-51
2023/02/13 05:56:05;;;;;;;25.63;16.30;;;7.30;99.90;;;;;;5009044;28;20494;-53
2023/02/13 05:58:55;;;;;;;27.15;16.60;;;7.30;99.90;;;;;;5008490;28;20372;-51
2023/02/13 06:01:41;;;;;;;24.38;15.55;;;7.30;99.90;;;;;;4993132;28;20085;-50
2023/02/13 06:04:27;;;;;;;25.10;16.63;;;7.40;99.90;;;;;;4993204;28;20030;-50
2023/02/13 06:07:13;;;;;;;28.50;16.38;;;7.30;99.90;;;;;;4992833;28;20077;-50
2023/02/13 06:09:59;;;;;;;27.73;17.45;;;7.30;99.90;;;;;;4993317;28;20030;-54
2023/02/13 06:12:45;;;;;;;28.85;17.45;;;7.40;99.90;;;;;;4993351;28;20573;-52
2023/02/13 06:15:31;;;;;;;26.77;17.13;;;7.40;99.90;;;;;;4992849;28;20034;-52
2023/02/13 06:18:17;;;;;;;24.65;16.35;;;7.30;99.90;;;;;;4993482;28;20085;-49
2023/02/13 06:21:03;;;;;;;24.55;16.80;;;7.30;99.90;;;;;;4993424;28;20105;-52
2023/02/13 06:23:49;;;;;;;28.98;17.73;;;7.30;99.90;;;;;;4992785;28;20038;-50
2023/02/13 06:26:35;;;;;;;26.10;17.50;;;7.30;99.90;;;;;;4972605;28;20038;-52
2023/02/13 06:29:21;;;;;;;27.63;17.45;;;7.30;99.90;;;;;;5003246;28;20421;-51
2023/02/13 06:32:07;;;;;;;29.17;18.27;;;7.20;99.90;;;;;;5012770;28;20038;-54
2023/02/13 06:34:52;;;;;;;28.80;16.80;;;7.20;99.90;;;;;;5003134;28;20114;-50
2023/02/13 06:37:38;;;;;;;25.15;16.73;;;7.20;99.90;;;;;;4992247;28;20034;-53
2023/02/13 06:40:24;;;;;;;27.17;17.48;;;7.30;99.90;;;;;;4979944;28;20109;-53
2023/02/13 06:43:11;;;;;;;27.95;15.90;;;7.30;99.90;;;;;;4996010;28;20030;-51
2023/02/13 06:45:57;;;;;;;26.05;14.85;;;7.20;99.90;;;;;;4991016;28;20064;-53
2023/02/13 06:48:43;;;;;;;22.65;13.85;;;7.20;99.90;;;;;;4992947;28;20041;-54
2023/02/13 06:51:28;;;;;;;24.85;13.88;;;7.20;99.90;;;;;;4992630;28;20165;-51
2023/02/13 06:54:14;;;;;;;22.83;13.60;;;7.20;99.90;;;;;;4993955;28;20027;-57
2023/02/13 06:57:00;;;;;;;24.08;13.68;;;7.20;99.90;;;;;;5000067;28;20522;-52
2023/02/13 06:59:46;;;;;;;23.27;14.07;;;7.20;99.90;;;;;;4990680;28;20434;-50
2023/02/13 07:02:32;;;;;;;23.02;13.95;;;7.10;99.90;;;;;;4992441;28;20092;-51
2023/02/13 07:05:18;;;;;;;21.50;13.00;;;7.20;99.90;;;;;;4991535;28;20384;-51
2023/02/13 07:08:04;;;;;;;24.00;13.40;;;7.10;99.90;;;;;;4991440;28;20491;-52
2023/02/13 07:10:50;;;;;;;19.52;11.90;;;7.20;99.90;;;;;;4991966;28;20356;-49
2023/02/13 07:13:36;;;;;;;21.52;12.50;;;7.10;99.90;;;;;;4992241;28;20027;-50
2023/02/13 07:16:22;;;;;;;23.10;13.32;;;7.20;99.90;;;;;;4972187;28;20057;-53
2023/02/13 07:19:08;;;;;;;20.58;11.93;;;7.20;99.90;;;;;;4976839;28;20030;-52
2023/02/13 07:21:54;;;;;;;19.35;12.25;;;7.20;99.90;;;;;;4992538;28;20054;-50
2023/02/13 07:24:40;;;;;;;23.92;13.57;;;7.10;99.90;;;;;;4989908;28;20035;-52
2023/02/13 07:27:28;;;;;;;26.15;13.40;;;7.10;99.90;;;;;;4990993;28;20030;-51
2023/02/13 07:30:14;;;;;;;20.73;11.65;;;7.10;99.90;;;;;;5006566;28;20598;-51
2023/02/13 07:33:01;;;;;;;22.35;13.40;;;7.00;99.90;;;;;;5004636;28;20124;-51
2023/02/13 07:35:51;;;;;;;17.40;11.43;;;7.00;99.90;;;;;;4991196;28;20037;-54
2023/02/13 07:38:37;;;;;;;20.45;10.98;;;7.10;99.90;;;;;;4990945;28;20487;-56
2023/02/13 07:41:25;;;;;;;18.65;11.30;;;7.20;99.90;;;;;;4973569;28;20396;-52
2023/02/13 07:44:11;;;;;;;24.73;12.93;;;7.10;99.90;;;;;;4999337;28;20035;-53
2023/02/13 07:46:57;;;;;;;17.40;11.27;;;7.10;99.90;;;;;;4999504;28;20410;-48
2023/02/13 07:49:43;;;;;;;18.83;11.48;;;7.10;99.90;;;;;;5000818;28;20105;-50
2023/02/13 07:52:29;;;;;;;19.58;11.75;;;7.20;99.90;;;;;;4991005;28;20045;-49
2023/02/13 07:55:15;;;;;;;16.65;10.52;;;7.20;99.90;;;;;;4991577;28;20470;-53
2023/02/13 07:58:01;;;;;;;15.30;9.23;;;7.20;99.90;;;;;;4991444;28;20038;-52
2023/02/13 08:00:47;;;;;;;14.63;8.90;;;7.20;99.90;;;;;;4990622;28;20058;-53
2023/02/13 08:03:33;;;;;;;17.67;10.85;;;7.20;99.90;;;;;;4999758;28;20403;-54
2023/02/13 08:06:19;;;;;;;13.60;8.95;;;7.30;99.90;;;;;;4981053;28;20030;-53
2023/02/13 08:12:10;;;;;;;13.68;9.20;;;7.30;99.90;;;;;;4991817;28;20085;-51
2023/02/13 08:14:56;;;;;;;14.80;9.30;;;7.10;99.90;;;;;;4989618;28;20041;-53
2023/02/13 08:17:42;;;;;;;11.57;8.55;;;7.10;99.90;;;;;;4992302;28;20034;-53
2023/02/13 08:20:28;;;;;;;11.27;8.35;;;7.10;99.90;;;;;;4993679;28;20049;-48
2023/02/13 08:23:14;;;;;;;11.25;6.75;;;7.20;99.90;;;;;;4994634;28;20062;-54
2023/02/13 08:26:00;;;;;;;11.27;7.53;;;7.20;99.90;;;;;;4994910;28;20033;-53
2023/02/13 08:28:46;;;;;;;8.02;6.43;;;7.20;99.90;;;;;;5006551;28;20022;-51
2023/02/13 08:31:32;;;;;;;7.72;6.45;;;7.20;99.90;;;;;;5004538;28;20022;-53
2023/02/13 08:34:18;;;;;;;8.48;5.93;;;7.20;99.90;;;;;;5006267;28;20026;-51
2023/02/13 08:37:04;;;;;;;7.03;6.20;;;7.30;99.90;;;;;;4996812;28;20034;-54
2023/02/13 08:39:50;;;;;;;8.18;5.95;;;7.20;99.90;;;;;;4993930;28;20034;-53
2023/02/13 08:42:37;;;;;;;7.88;5.78;;;7.30;99.90;;;;;;5000013;28;20402;-50
2023/02/13 08:45:23;;;;;;;7.47;5.82;;;7.30;99.90;;;;;;4991915;28;20038;-50
2023/02/13 08:48:09;;;;;;;6.55;5.57;;;7.20;99.90;;;;;;5002854;28;20022;-49
2023/02/13 08:50:54;;;;;;;9.85;6.43;;;7.20;99.90;;;;;;4985905;28;20053;-49
2023/02/13 08:53:41;;;;;;;7.95;6.30;;;7.20;99.90;;;;;;4985561;28;20022;-48
2023/02/13 08:56:27;;;;;;;9.90;6.45;;;7.40;99.90;;;;;;4991643;28;20449;-49
2023/02/13 08:59:13;;;;;;;8.35;6.20;;;7.40;99.90;;;;;;4992533;28;20041;-49
2023/02/13 09:01:59;;;;;;;8.85;6.63;;;7.30;99.90;;;;;;5003117;28;20042;-50
2023/02/13 09:04:45;;;;;;;8.65;5.93;;;7.20;99.90;;;;;;4982384;28;20038;-49
2023/02/13 09:07:31;;;;;;;7.65;6.18;;;7.10;99.90;;;;;;4993679;28;20026;-53
2023/02/13 09:10:17;;;;;;;7.30;5.50;;;7.10;99.90;;;;;;5000023;28;20152;-50
2023/02/13 09:13:03;;;;;;;9.77;6.40;;;7.30;99.90;;;;;;5006249;28;20398;-50
2023/02/13 09:15:49;;;;;;;7.82;6.10;;;7.20;99.90;;;;;;5005851;28;20053;-50
2023/02/13 09:18:35;;;;;;;7.10;5.82;;;7.20;99.90;;;;;;4994218;28;20113;-57
2023/02/13 09:21:22;;;;;;;6.72;5.78;;;7.10;99.90;;;;;;4996575;28;20074;-53
2023/02/13 09:24:10;;;;;;;10.75;6.60;;;7.20;99.90;;;;;;5000585;28;20030;-51
2023/02/13 09:26:56;;;;;;;6.97;5.80;;;7.20;99.90;;;;;;4993241;28;20034;-57
2023/02/13 09:29:41;;;;;;;6.95;5.88;;;7.10;99.90;;;;;;4995593;28;20056;-49
2023/02/13 09:32:28;;;;;;;8.02;6.15;;;7.10;99.90;;;;;;4985930;28;20053;-57
2023/02/13 09:35:14;;;;;;;7.97;6.35;;;7.10;99.90;;;;;;4984295;28;20371;-49
2023/02/13 09:38:00;;;;;;;7.22;5.85;;;7.00;99.90;;;;;;4989790;28;20466;-51
2023/02/13 09:40:59;;;;;;;8.20;6.25;;;7.20;99.90;;;;;;4986714;28;20026;-50
2023/02/13 09:43:58;;;;;;;7.50;5.82;;;7.20;99.90;;;;;;4974340;28;20027;-53
2023/02/13 09:46:44;;;;;;;6.78;5.70;;;7.30;99.90;;;;;;4991449;28;20026;-50
2023/02/13 09:49:33;;;;;;;8.40;6.07;;;7.40;99.90;;;;;;4983406;28;20112;-48
2023/02/13 09:52:19;;;;;;;8.75;6.03;;;7.30;99.90;;;;;;4995702;28;20513;-46
2023/02/13 09:55:36;;;;;;;10.30;6.35;;;7.30;99.90;;;;;;5005557;28;20042;-45
2023/02/13 09:58:45;;;;;;;10.05;5.75;;;7.20;99.90;;;;;;4990407;28;20084;-51
2023/02/13 10:01:40;;;;;;;7.60;6.32;;;7.30;99.90;;;;;;4993205;28;20452;-48
2023/02/13 10:04:53;;;;;;;7.93;6.28;;;7.30;99.90;;;;;;4990666;28;20026;-52
2023/02/13 10:07:59;;;;;;;8.60;6.72;;;7.30;99.90;;;;;;4983712;28;20034;-48
2023/02/13 10:10:45;;;;;;;11.57;6.75;;;7.20;99.90;;;;;;4990316;28;20078;-46
2023/02/13 10:13:45;;;;;;;9.82;7.25;;;7.20;99.90;;;;;;4991622;28;20014;-51
2023/02/13 10:16:45;;;;;;;9.55;6.57;;;7.30;99.90;;;;;;4990687;28;20022;-49
2023/02/13 10:19:42;;;;;;;7.65;5.80;;;7.30;99.90;;;;;;4990250;28;20038;-47
2023/02/13 10:22:40;;;;;;;9.65;5.40;;;7.30;99.90;;;;;;4989207;28;20427;-49
2023/02/13 10:25:42;;;;;;;8.27;6.40;;;7.40;99.90;;;;;;4999255;28;20491;-51
2023/02/13 10:28:39;;;;;;;8.05;5.90;;;7.50;99.90;;;;;;4994058;28;20109;-52
2023/02/13 10:31:25;;;;;;;7.53;6.00;;;7.60;99.90;;;;;;4988224;28;20026;-51
2023/02/13 10:34:15;;;;;;;9.32;6.60;;;7.50;99.90;;;;;;4989081;28;20503;-51
2023/02/13 10:37:02;;;;;;;8.68;6.40;;;7.40;99.90;;;;;;4989183;28;20044;-53
2023/02/13 10:39:50;;;;;;;7.75;6.05;;;7.50;99.90;;;;;;4992167;28;20109;-48
2023/02/13 10:42:44;;;;;;;10.07;6.25;;;7.70;99.90;;;;;;4990877;28;20034;-48
2023/02/13 10:46:06;;;;;;;9.02;6.00;;;8.10;99.90;;;;;;4978108;28;20035;-47
2023/02/13 10:49:07;;;;;;;7.68;6.20;;;8.40;99.90;;;;;;4991914;28;20490;-46
2023/02/13 10:52:05;;;;;;;8.98;6.63;;;8.10;99.90;;;;;;4992849;28;20096;-54
2023/02/13 10:55:24;;;;;;;9.52;7.10;;;7.80;99.90;;;;;;4992674;28;20436;-54
2023/02/13 10:58:13;;;;;;;9.52;6.65;;;7.90;99.90;;;;;;4992907;28;20022;-49
2023/02/13 11:01:12;;;;;;;9.77;6.60;;;7.90;99.90;;;;;;4973996;28;20396;-55
2023/02/13 11:04:18;;;;;;;8.07;6.18;;;7.90;99.90;;;;;;4978468;28;20034;-51
2023/02/13 11:07:13;;;;;;;9.25;7.22;;;7.90;99.90;;;;;;4991488;28;20101;-52
2023/02/13 11:10:07;;;;;;;8.88;7.05;;;7.80;99.90;;;;;;4992277;28;20470;-50
2023/02/13 11:12:54;;;;;;;8.20;7.22;;;7.70;99.90;;;;;;4992047;28;20705;-47
2023/02/13 11:15:40;;;;;;;8.35;6.93;;;7.80;99.90;;;;;;4992408;28;20109;-51
2023/02/13 11:18:28;;;;;;;9.80;6.72;;;7.90;99.90;;;;;;4991804;28;20034;-47
2023/02/13 11:21:33;;;;;;;9.10;5.93;;;7.80;99.90;;;;;;4992177;28;20030;-48
2023/02/13 11:24:23;;;;;;;7.60;5.90;;;7.80;99.90;;;;;;4991645;28;20052;-48
2023/02/13 11:27:12;;;;;;;7.00;5.40;;;7.90;99.90;;;;;;4991917;28;20172;-49
2023/02/13 11:30:24;;;;;;;7.65;6.03;;;7.90;99.90;;;;;;4991360;28;20026;-54
2023/02/13 11:33:16;;;;;;;9.45;5.72;;;8.00;99.90;;;;;;4972800;28;20027;-51
2023/02/13 11:36:08;;;;;;;6.85;5.45;;;8.10;99.90;;;;;;4974201;28;20496;-51
2023/02/13 11:39:16;;;;;;;6.68;4.97;;;8.00;99.90;;;;;;4990924;28;20100;-49
2023/02/13 11:42:02;;;;;;;9.07;5.60;;;7.90;99.90;;;;;;4991865;28;20066;-48
2023/02/13 11:44:53;;;;;;;6.35;5.40;;;7.90;99.90;;;;;;4978310;28;20034;-46
2023/02/13 11:47:41;;;;;;;8.15;5.43;;;8.00;99.90;;;;;;4990252;28;20034;-54
2023/02/13 11:50:31;;;;;;;9.10;5.00;;;8.10;99.90;;;;;;4991247;28;20495;-52
2023/02/13 11:53:19;;;;;;;8.27;5.97;;;8.10;99.90;;;;;;4991516;28;20046;-54
2023/02/13 11:56:12;;;;;;;6.82;5.43;;;8.00;99.90;;;;;;4995392;28;20022;-47
2023/02/13 11:59:04;;;;;;;8.32;5.80;;;8.00;99.90;;;;;;4996453;28;20026;-47
2023/02/13 12:02:18;;;;;;;9.57;6.20;;;7.90;99.90;;;;;;4995939;28;20034;-51
2023/02/13 12:05:24;;;;;;;8.05;5.72;;;7.90;99.90;;;;;;4995365;28;20023;-47
2023/02/13 12:08:10;;;;;;;6.45;5.57;;;8.00;99.90;;;;;;4976020;28;20523;-47
2023/02/13 12:10:59;;;;;;;8.32;5.38;;;8.00;99.90;;;;;;4979717;28;20034;-46
2023/02/13 12:13:46;;;;;;;8.88;6.15;;;8.20;99.90;;;;;;4995420;28;20447;-47
2023/02/13 12:16:40;;;;;;;9.63;5.55;;;8.30;99.90;;;;;;4995301;28;20510;-47
2023/02/13 12:19:42;;;;;;;8.90;5.85;;;8.30;99.90;;;;;;4994898;28;20026;-48
2023/02/13 12:22:31;;;;;;;6.90;5.47;;;8.40;99.90;;;;;;4976328;28;20085;-47
2023/02/13 12:25:34;;;;;;;12.23;7.28;;;8.40;99.90;;;;;;4978020;28;20026;-52
2023/02/13 12:28:41;;;;;;;7.28;5.88;;;8.30;99.90;;;;;;4994060;28;20453;-54
2023/02/13 12:31:39;;;;;;;8.07;6.30;;;8.20;99.90;;;;;;4993777;28;20023;-48
2023/02/13 12:34:58;;;;;;;7.95;6.25;;;8.30;99.90;;;;;;4994116;28;20023;-48
2023/02/13 12:38:21;;;;;;;8.40;6.80;;;8.40;99.90;;;;;;4975643;28;20027;-53
2023/02/13 12:41:18;;;;;;;8.88;6.88;;;8.40;99.90;;;;;;4981654;28;20029;-50
2023/02/13 12:44:41;;;;;;;9.45;7.38;;;8.20;99.90;;;;;;4995292;28;20022;-52
2023/02/13 12:47:52;;;;;;;8.70;6.90;;;8.30;99.90;;;;;;4975095;28;20406;-50
2023/02/13 12:51:03;;;;;;;13.05;7.65;;;8.30;99.90;;;;;;4986116;28;20030;-55
2023/02/13 12:54:10;;;;;;;9.77;8.05;;;8.40;99.90;;;;;;4993209;28;20042;-49
2023/02/13 12:57:20;;;;;;;10.95;7.72;;;8.20;99.90;;;;;;4974695;28;20571;-47
2023/02/13 13:00:31;;;;;;;11.23;8.70;;;8.30;99.90;;;;;;4980721;28;20050;-45
2023/02/13 13:03:54;;;;;;;14.73;8.25;;;8.30;99.90;;;;;;4993949;28;20030;-49
2023/02/13 13:06:52;;;;;;;9.52;7.95;;;8.60;99.90;;;;;;4992883;28;20172;-44
2023/02/13 13:10:02;;;;;;;14.18;7.35;;;8.50;99.90;;;;;;4993532;28;20123;-46
2023/02/13 13:13:19;;;;;;;10.48;7.75;;;8.40;99.90;;;;;;4994127;28;20050;-45
2023/02/13 13:16:32;;;;;;;11.60;8.68;;;8.40;99.90;;;;;;4994455;28;20027;-45
2023/02/13 13:19:55;;;;;;;14.00;8.05;;;8.30;99.90;;;;;;4994469;28;20033;-46
2023/02/13 13:22:50;;;;;;;13.40;8.25;;;8.30;99.90;;;;;;4992245;28;20038;-47
2023/02/13 13:26:16;;;;;;;12.13;9.68;;;8.40;99.90;;;;;;4994172;28;20498;-52
2023/02/13 13:29:45;;;;;;;19.50;12.20;;;8.40;99.90;;;;;;4992249;28;20080;-50
2023/02/13 13:32:33;;;;;;;11.43;8.82;;;8.40;99.90;;;;;;4994474;28;20023;-45
2023/02/13 13:35:20;;;;;;;18.25;9.50;;;8.40;99.90;;;;;;4992999;28;20027;-46
2023/02/13 13:38:42;;;;;;;16.88;9.35;;;8.40;99.90;;;;;;4993901;28;20037;-48
2023/02/13 13:41:53;;;;;;;11.27;8.70;;;8.40;99.90;;;;;;4994101;28;20089;-45
2023/02/13 13:45:00;;;;;;;15.57;8.45;;;8.50;99.90;;;;;;4994113;28;20487;-46
2023/02/13 13:48:45;;;;;;;18.33;8.85;;;8.50;99.90;;;;;;4993681;28;20029;-45
2023/02/13 13:51:32;;;;;;;11.70;8.35;;;8.60;99.90;;;;;;4984594;28;20038;-45
2023/02/13 13:54:33;;;;;;;12.55;8.45;;;8.60;99.90;;;;;;4994028;28;20034;-48
2023/02/13 13:57:24;;;;;;;12.50;8.82;;;8.60;99.90;;;;;;4991881;28;20029;-47
2023/02/13 14:00:10;;;;;;;15.82;9.10;;;8.50;99.90;;;;;;4993529;28;20034;-49
2023/02/13 14:03:39;;;;;;;11.25;7.72;;;8.50;99.90;;;;;;4994697;28;20030;-46
2023/02/13 14:06:47;;;;;;;9.73;7.55;;;8.50;99.90;;;;;;4993716;28;20109;-50
2023/02/13 14:09:40;;;;;;;10.25;6.72;;;8.30;99.90;;;;;;4992155;28;20486;-50
2023/02/13 14:12:28;;;;;;;10.18;7.35;;;8.30;99.90;;;;;;4993119;28;20026;-46
2023/02/13 14:15:33;;;;;;;9.38;7.47;;;8.50;99.90;;;;;;4993483;28;20462;-46
2023/02/13 14:18:22;;;;;;;9.77;6.67;;;8.40;99.90;;;;;;4992719;28;20465;-54
2023/02/13 14:21:08;;;;;;;12.25;6.90;;;8.50;99.90;;;;;;4993069;28;20030;-45
2023/02/13 14:23:59;;;;;;;10.38;7.78;;;8.60;99.90;;;;;;4992349;28;20033;-46
2023/02/13 14:26:54;;;;;;;9.05;6.55;;;8.60;99.90;;;;;;4992850;28;20594;-47
2023/02/13 14:29:47;;;;;;;16.42;7.25;;;8.70;99.90;;;;;;4992793;28;20048;-48
2023/02/13 14:32:35;;;;;;;10.55;6.47;;;8.80;99.90;;;;;;4993649;28;20093;-47
2023/02/13 14:35:28;;;;;;;13.80;7.30;;;8.60;99.90;;;;;;4992342;28;20494;-46
2023/02/13 14:38:34;;;;;;;9.75;6.82;;;8.70;99.90;;;;;;4991270;28;20518;-47
2023/02/13 14:41:58;;;;;;;13.05;7.05;;;8.70;99.90;;;;;;4993592;28;20026;-51
2023/02/13 14:44:48;;;;;;;12.52;6.82;;;8.70;99.90;;;;;;4993811;28;20026;-51
2023/02/13 14:47:41;;;;;;;16.48;7.43;;;8.70;99.90;;;;;;4993246;28;20014;-47
2023/02/13 14:50:44;;;;;;;12.68;7.32;;;8.60;99.90;;;;;;4992763;28;20019;-49
2023/02/13 14:53:46;;;;;;;12.43;6.97;;;8.50;99.90;;;;;;4992135;28;20026;-50
2023/02/13 14:56:32;;;;;;;11.43;6.65;;;8.50;99.90;;;;;;4997188;28;20034;-54
2023/02/13 14:59:27;;;;;;;12.38;7.38;;;8.50;99.90;;;;;;4994259;28;20114;-57
2023/02/13 15:02:32;;;;;;;13.30;7.90;;;8.50;99.90;;;;;;4992836;28;20499;-46
2023/02/13 15:05:19;;;;;;;10.83;7.20;;;8.50;99.90;;;;;;4993728;28;20180;-47
2023/02/13 15:08:18;;;;;;;14.85;6.97;;;8.40;99.90;;;;;;4994557;28;20503;-49
2023/02/13 15:11:34;;;;;;;9.68;6.15;;;8.40;99.90;;;;;;4992734;28;20023;-48
2023/02/13 15:14:24;;;;;;;9.05;6.53;;;8.40;99.90;;;;;;4992568;28;20019;-47
2023/02/13 15:17:18;;;;;;;11.27;6.95;;;8.40;99.90;;;;;;4992815;28;20033;-45
2023/02/13 15:20:19;;;;;;;10.48;5.85;;;8.30;99.90;;;;;;4992052;28;20117;-47
2023/02/13 15:23:06;;;;;;;7.68;5.72;;;8.30;99.90;;;;;;4992998;28;20023;-52
2023/02/13 15:25:59;;;;;;;14.52;7.47;;;8.30;99.90;;;;;;4991755;28;20033;-47
2023/02/13 15:29:02;;;;;;;8.82;5.97;;;8.30;99.90;;;;;;4992094;28;20022;-46
2023/02/13 15:31:48;;;;;;;9.05;6.35;;;8.30;99.90;;;;;;4992437;28;20033;-45
2023/02/13 15:34:34;;;;;;;8.32;5.82;;;8.30;99.90;;;;;;4991390;28;20122;-48
2023/02/13 15:37:23;;;;;;;8.57;6.30;;;8.30;99.90;;;;;;4991404;28;20023;-49
2023/02/13 15:40:26;;;;;;;13.80;7.10;;;8.20;99.90;;;;;;4990688;28;20077;-48